createdAt,value
2023-04-25T00:00:31.319Z,97253.41
2023-04-25T00:04:35.002Z,97251.94
2023-04-25T00:08:37.234Z,97251.25
2023-04-25T00:12:39.967Z,97261.47
2023-04-25T00:16:42.152Z,97256.84
2023-04-25T00:20:47.397Z,97252.69
2023-04-25T00:24:49.455Z,97258.94
2023-04-25T00:28:51.542Z,97245.38
2023-04-25T00:32:54.235Z,97249.28
2023-04-25T00:36:56.433Z,97250.34
2023-04-25T00:40:58.578Z,97260.03
2023-04-25T00:45:01.750Z,97264.63
2023-04-25T00:49:03.784Z,97252.47
2023-04-25T00:53:06.159Z,97260.41
2023-04-25T00:57:08.302Z,97250.22
2023-04-25T01:01:11.789Z,97258.91
2023-04-25T01:05:14.412Z,97254.13
2023-04-25T01:09:17.045Z,97249.97
2023-04-25T01:13:19.123Z,97255.47
2023-04-25T01:17:22.080Z,97253.91
2023-04-25T01:21:28.112Z,97248.00
2023-04-25T01:25:31.750Z,97247.41
2023-04-25T01:29:35.568Z,97245.94
2023-04-25T01:33:38.312Z,97248.84
2023-04-25T01:37:41.896Z,97242.19
2023-04-25T01:41:45.589Z,97240.63
2023-04-25T01:45:48.913Z,97245.84
2023-04-25T01:49:51.011Z,97240.91
2023-04-25T01:53:53.474Z,97243.44
2023-04-25T01:57:55.577Z,97242.59
2023-04-25T02:02:06.609Z,97241.84
2023-04-25T02:06:10.783Z,97241.69
2023-04-25T02:10:17.749Z,97243.59
2023-04-25T02:14:30.707Z,97246.25
2023-04-25T02:18:38.496Z,97250.72
2023-04-25T02:22:43.253Z,97246.53
2023-04-25T02:26:45.419Z,97248.38
2023-04-25T02:30:48.685Z,97250.97
2023-04-25T02:34:50.884Z,97252.03
2023-04-25T02:38:53.077Z,97254.91
2023-04-25T02:42:56.554Z,97244.22
2023-04-25T02:46:58.576Z,97256.75
2023-04-25T02:51:00.689Z,97253.09
2023-04-25T02:55:03.197Z,97242.25
2023-04-25T02:59:06.496Z,97253.06
2023-04-25T03:03:08.650Z,97245.66
2023-04-25T03:07:11.872Z,97252.25
2023-04-25T03:11:13.984Z,97254.06
2023-04-25T03:15:17.660Z,97259.53
2023-04-25T03:19:19.917Z,97260.13
2023-04-25T03:23:22.176Z,97262.34
2023-04-25T03:27:24.398Z,97246.50
2023-04-25T03:31:27.115Z,97257.22
2023-04-25T03:35:29.561Z,97262.72
2023-04-25T03:39:31.953Z,97272.78
2023-04-25T03:43:34.519Z,97266.06
2023-04-25T03:47:41.330Z,97273.22
2023-04-25T03:51:43.455Z,97284.91
2023-04-25T03:55:45.607Z,97286.00
2023-04-25T03:59:48.880Z,97282.63
2023-04-25T04:03:52.130Z,97288.59
2023-04-25T04:07:55.485Z,97288.78
2023-04-25T04:11:58.164Z,97288.91
2023-04-25T04:16:00.675Z,97289.00
2023-04-25T04:20:04.556Z,97298.50
2023-04-25T04:24:07.799Z,97296.81
2023-04-25T04:28:23.079Z,97307.22
2023-04-25T04:32:31.479Z,97308.72
2023-04-25T04:36:34.460Z,97298.25
2023-04-25T04:40:36.559Z,97306.72
2023-04-25T04:44:45.672Z,97306.63
2023-04-25T04:49:08.012Z,97317.00
2023-04-25T04:53:16.183Z,97314.69
2023-04-25T04:57:33.987Z,97325.19
2023-04-25T05:01:48.010Z,97333.94
2023-04-25T05:06:01.889Z,97334.81
2023-04-25T05:10:21.829Z,97339.63
2023-04-25T05:14:32.645Z,97352.38
2023-04-25T05:18:48.609Z,97343.50
2023-04-25T05:23:19.269Z,97347.28
2023-04-25T05:27:43.014Z,97343.75
2023-04-25T05:32:03.591Z,97332.19
2023-04-25T05:36:07.388Z,97336.56
2023-04-25T05:40:10.563Z,97339.97
2023-04-25T05:44:32.137Z,97348.88
2023-04-25T05:48:55.337Z,97347.50
2023-04-25T05:53:12.640Z,97346.97
2023-04-25T05:57:25.229Z,97349.50
2023-04-25T06:01:27.963Z,97356.13
2023-04-25T06:05:30.596Z,97348.75
2023-04-25T06:09:32.687Z,97359.16
2023-04-25T06:13:34.743Z,97359.66
2023-04-25T06:17:37.145Z,97356.38
2023-04-25T06:21:44.367Z,97353.03
2023-04-25T06:25:46.621Z,97356.72
2023-04-25T06:29:49.047Z,97357.13
2023-04-25T06:33:51.799Z,97359.69
2023-04-25T06:37:54.252Z,97363.63
2023-04-25T06:41:58.516Z,97358.06
2023-04-25T06:46:29.670Z,97362.25
2023-04-25T06:50:34.939Z,97367.69
2023-04-25T06:54:37.575Z,97362.50
2023-04-25T06:58:52.633Z,97374.97
2023-04-25T07:03:04.089Z,97380.81
2023-04-25T07:07:06.428Z,97391.06
2023-04-25T07:11:15.474Z,97398.63
2023-04-25T07:15:17.533Z,97400.88
2023-04-25T07:19:22.950Z,97401.53
2023-04-25T07:23:25.174Z,97418.38
2023-04-25T07:27:27.694Z,97420.59
2023-04-25T07:31:34.364Z,97416.97
2023-04-25T07:35:36.515Z,97417.44
2023-04-25T07:39:38.581Z,97430.06
2023-04-25T07:43:41.511Z,97424.69
2023-04-25T07:47:43.699Z,97428.91
2023-04-25T07:51:45.991Z,97438.06
2023-04-25T07:55:51.612Z,97444.41
2023-04-25T07:59:54.416Z,97442.09
2023-04-25T08:03:58.101Z,97450.19
2023-04-25T08:08:19.738Z,97451.78
2023-04-25T08:12:23.470Z,97452.75
2023-04-25T08:16:26.364Z,97455.59
2023-04-25T08:20:29.088Z,97450.94
2023-04-25T08:24:33.330Z,97459.03
2023-04-25T08:28:35.761Z,97466.88
2023-04-25T08:32:39.697Z,97462.50
2023-04-25T08:37:00.795Z,97464.91
2023-04-25T08:41:16.295Z,97474.47
2023-04-25T08:45:18.339Z,97476.31
2023-04-25T08:49:20.711Z,97481.91
2023-04-25T08:53:28.234Z,97495.19
2023-04-25T08:57:32.222Z,97493.94
2023-04-25T09:01:35.987Z,97496.34
2023-04-25T09:05:38.974Z,97494.16
2023-04-25T09:09:41.206Z,97506.09
2023-04-25T09:13:43.818Z,97510.06
2023-04-25T09:18:08.496Z,97509.41
2023-04-25T09:22:19.330Z,97510.31
2023-04-25T09:26:22.329Z,97512.03
2023-04-25T09:30:34.982Z,97518.97
2023-04-25T09:34:44.773Z,97520.31
2023-04-25T09:38:48.171Z,97533.94
2023-04-25T09:43:24.271Z,97548.78
2023-04-25T09:47:27.798Z,97565.22
2023-04-25T09:51:31.226Z,97577.38
2023-04-25T09:55:36.979Z,97579.09
2023-04-25T09:59:40.697Z,97588.97
2023-04-25T10:03:44.297Z,97592.72
2023-04-25T10:08:13.528Z,97595.34
2023-04-25T10:12:15.734Z,97588.78
2023-04-25T10:16:18.737Z,97591.41
2023-04-25T10:20:20.918Z,97601.25
2023-04-25T10:24:23.772Z,97601.72
2023-04-25T10:28:26.114Z,97590.81
2023-04-25T10:32:30.064Z,97590.84
2023-04-25T10:36:33.463Z,97578.22
2023-04-25T10:40:35.805Z,97584.09
2023-04-25T10:44:38.994Z,97589.00
2023-04-25T10:48:47.863Z,97591.63
2023-04-25T10:52:49.944Z,97605.41
2023-04-25T10:56:52.604Z,97603.47
2023-04-25T11:00:57.661Z,97603.09
2023-04-25T11:05:00.622Z,97603.94
2023-04-25T11:09:03.056Z,97597.28
2023-04-25T11:13:05.912Z,97601.09
2023-04-25T11:17:08.487Z,97590.78
2023-04-25T11:21:11.321Z,97593.97
2023-04-25T11:25:16.382Z,97589.22
2023-04-25T11:29:18.424Z,97592.19
2023-04-25T11:33:25.589Z,97594.13
2023-04-25T11:37:27.962Z,97602.69
2023-04-25T11:41:31.386Z,97601.75
2023-04-25T11:45:33.632Z,97613.69
2023-04-25T11:49:36.684Z,97620.72
2023-04-25T11:53:42.279Z,97634.97
2023-04-25T11:57:46.257Z,97643.16
2023-04-25T12:01:50.796Z,97641.72
2023-04-25T12:05:53.157Z,97658.69
2023-04-25T12:09:55.717Z,97657.00
2023-04-25T12:14:03.027Z,97652.75
2023-04-25T12:18:05.047Z,97640.25
2023-04-25T12:22:23.651Z,97645.31
2023-04-25T12:26:26.426Z,97633.41
2023-04-25T12:30:29.180Z,97635.56
2023-04-25T12:34:33.175Z,97631.72
2023-04-25T12:38:41.224Z,97634.00
2023-04-25T12:42:43.249Z,97625.06
2023-04-25T12:46:46.094Z,97634.59
2023-04-25T12:50:50.138Z,97643.88
2023-04-25T12:54:52.207Z,97653.34
2023-04-25T12:58:54.781Z,97653.91
2023-04-25T13:02:56.952Z,97665.84
2023-04-25T13:06:59.089Z,97666.56
2023-04-25T13:11:01.367Z,97661.25
2023-04-25T13:15:03.745Z,97667.19
2023-04-25T13:19:06.572Z,97663.81
2023-04-25T13:23:08.651Z,97664.34
2023-04-25T13:27:10.735Z,97660.19
2023-04-25T13:31:12.772Z,97670.28
2023-04-25T13:35:14.898Z,97663.38
2023-04-25T13:39:17.044Z,97664.59
2023-04-25T13:43:25.632Z,97662.28
2023-04-25T13:47:28.205Z,97668.53
2023-04-25T13:51:32.581Z,97673.25
2023-04-25T13:55:37.695Z,97671.22
2023-04-25T13:59:41.613Z,97682.03
2023-04-25T14:03:43.814Z,97682.28
2023-04-25T14:07:46.002Z,97687.03
2023-04-25T14:11:48.040Z,97689.41
2023-04-25T14:15:51.438Z,97680.06
2023-04-25T14:19:53.518Z,97689.47
2023-04-25T14:23:55.856Z,97692.66
2023-04-25T14:27:57.835Z,97699.69
2023-04-25T14:32:00.155Z,97710.34
2023-04-25T14:36:02.184Z,97716.28
2023-04-25T14:40:05.523Z,97708.78
2023-04-25T14:44:07.600Z,97714.34
2023-04-25T14:48:09.777Z,97717.72
2023-04-25T14:52:11.918Z,97715.75
2023-04-25T14:56:14.038Z,97719.13
2023-04-25T15:00:17.379Z,97716.22
2023-04-25T15:04:19.831Z,97715.44
2023-04-25T15:08:22.080Z,97725.19
2023-04-25T15:12:24.562Z,97720.06
2023-04-25T15:16:27.280Z,97723.31
2023-04-25T15:20:29.463Z,97726.38
2023-04-25T15:24:31.672Z,97723.44
2023-04-25T15:28:34.653Z,97726.63
2023-04-25T15:32:36.706Z,97725.16
2023-04-25T15:36:38.723Z,97730.19
2023-04-25T15:40:41.235Z,97729.00
2023-04-25T15:44:43.362Z,97740.44
2023-04-25T15:48:45.949Z,97737.81
2023-04-25T15:52:49.567Z,97731.56
2023-04-25T15:56:51.596Z,97739.91
2023-04-25T16:00:55.543Z,97742.75
2023-04-25T16:04:57.950Z,97748.22
2023-04-25T16:09:00.356Z,97744.78
2023-04-25T16:13:02.530Z,97750.63
2023-04-25T16:17:04.545Z,97745.88
2023-04-25T16:21:06.643Z,97744.16
2023-04-25T16:25:09.403Z,97739.06
2023-04-25T16:29:12.598Z,97737.31
2023-04-25T16:33:15.178Z,97740.69
2023-04-25T16:37:17.270Z,97741.53
2023-04-25T16:41:19.786Z,97751.75
2023-04-25T16:45:22.180Z,97744.53
2023-04-25T16:49:24.176Z,97746.34
2023-04-25T16:53:26.725Z,97753.72
2023-04-25T16:57:28.820Z,97751.31
2023-04-25T17:01:31.099Z,97755.44
2023-04-25T17:05:34.208Z,97756.81
2023-04-25T17:09:36.692Z,97758.75
2023-04-25T17:13:38.754Z,97768.53
2023-04-25T17:17:40.934Z,97759.94
2023-04-25T17:21:43.891Z,97766.91
2023-04-25T17:25:46.178Z,97770.84
2023-04-25T17:29:48.175Z,97775.53
2023-04-25T17:33:50.593Z,97781.63
2023-04-25T17:37:52.663Z,97793.38
2023-04-25T17:41:54.750Z,97799.94
2023-04-25T17:45:56.983Z,97804.78
2023-04-25T17:49:59.033Z,97799.38
2023-04-25T17:54:01.130Z,97811.34
2023-04-25T17:58:03.173Z,97810.88
2023-04-25T18:02:05.318Z,97825.38
2023-04-25T18:06:07.332Z,97815.41
2023-04-25T18:10:11.687Z,97830.75
2023-04-25T18:14:14.847Z,97837.53
2023-04-25T18:18:20.416Z,97843.97
2023-04-25T18:22:22.607Z,97842.56
2023-04-25T18:26:24.631Z,97847.13
2023-04-25T18:30:26.902Z,97855.41
2023-04-25T18:34:28.927Z,97861.13
2023-04-25T18:38:35.834Z,97861.56
2023-04-25T18:42:38.403Z,97865.13
2023-04-25T18:46:43.613Z,97875.59
2023-04-25T18:50:45.770Z,97876.69
2023-04-25T18:54:48.051Z,97885.66
2023-04-25T18:58:53.868Z,97893.69
2023-04-25T19:03:03.207Z,97901.72
2023-04-25T19:07:05.361Z,97900.78
2023-04-25T19:11:18.154Z,97914.91
2023-04-25T19:15:23.133Z,97913.50
2023-04-25T19:19:27.238Z,97920.75
2023-04-25T19:23:31.198Z,97917.59
2023-04-25T19:27:33.588Z,97927.28
2023-04-25T19:31:37.279Z,97928.31
2023-04-25T19:35:39.461Z,97934.53
2023-04-25T19:39:41.838Z,97938.97
2023-04-25T19:43:43.917Z,97933.22
2023-04-25T19:47:46.157Z,97935.13
2023-04-25T19:51:48.188Z,97937.63
2023-04-25T19:55:50.377Z,97936.81
2023-04-25T19:59:52.528Z,97934.97
2023-04-25T20:03:54.984Z,97937.59
2023-04-25T20:07:57.193Z,97944.44
2023-04-25T20:11:59.198Z,97950.56
2023-04-25T20:16:02.725Z,97945.16
2023-04-25T20:20:06.452Z,97947.72
2023-04-25T20:24:08.601Z,97958.78
2023-04-25T20:28:10.606Z,97954.44
2023-04-25T20:32:12.896Z,97944.03
2023-04-25T20:36:15.555Z,97955.16
2023-04-25T20:40:17.575Z,97959.81
2023-04-25T20:44:22.585Z,97955.78
2023-04-25T20:48:24.700Z,97963.03
2023-04-25T20:52:26.725Z,97958.94
2023-04-25T20:56:28.746Z,97970.03
2023-04-25T21:00:30.858Z,97969.06
2023-04-25T21:04:32.983Z,97966.59
2023-04-25T21:08:35.194Z,97971.34
2023-04-25T21:12:37.269Z,97969.19
2023-04-25T21:16:40.689Z,97976.56
2023-04-25T21:20:42.756Z,97980.06
2023-04-25T21:24:44.836Z,97982.66
2023-04-25T21:28:47.051Z,97989.75
2023-04-25T21:32:52.598Z,97990.28
2023-04-25T21:36:54.715Z,97978.22
2023-04-25T21:40:56.854Z,97978.34
2023-04-25T21:44:58.857Z,97982.03
2023-04-25T21:49:01.005Z,97981.59
2023-04-25T21:53:03.688Z,97981.13
2023-04-25T21:57:05.739Z,97977.00
2023-04-25T22:01:07.790Z,97975.13
2023-04-25T22:05:10.417Z,97995.75
2023-04-25T22:09:12.977Z,97989.69
2023-04-25T22:13:15.303Z,97994.81
2023-04-25T22:17:17.931Z,98002.91
2023-04-25T22:21:20.370Z,98008.31
2023-04-25T22:25:22.649Z,98005.53
2023-04-25T22:29:24.747Z,98016.06
2023-04-25T22:33:27.410Z,98023.03
2023-04-25T22:37:29.633Z,98028.41
2023-04-25T22:41:32.102Z,98032.75
2023-04-25T22:45:35.639Z,98038.91
2023-04-25T22:49:37.691Z,98040.53
2023-04-25T22:53:41.876Z,98038.28
2023-04-25T22:57:44.034Z,98055.59
2023-04-25T23:01:47.056Z,98049.44
2023-04-25T23:05:49.517Z,98050.22
2023-04-25T23:09:52.020Z,98051.94
2023-04-25T23:13:54.032Z,98051.09
2023-04-25T23:17:57.001Z,98054.94
2023-04-25T23:21:59.853Z,98051.81
2023-04-25T23:26:11.644Z,98053.34
2023-04-25T23:30:15.264Z,98057.38
2023-04-25T23:34:17.293Z,98067.22
2023-04-25T23:38:20.770Z,98063.63
2023-04-25T23:42:22.758Z,98073.38
2023-04-25T23:46:25.851Z,98073.34
2023-04-25T23:50:27.926Z,98066.56
2023-04-25T23:54:29.942Z,98077.66
2023-04-25T23:58:31.978Z,98083.50
